Latest Weather Observations for Thursday Island

IDQ60801

Issued at 8:12 pm EST Tuesday 26 March 2019 (issued every 10 minutes, with the page automatically refreshed every 10 minutes)

About weather observations | Map of weather stations | Latest weather observations for QLD | Other Formats
Station Details ID: 200892 Name: TORRES STRAIT NTC AWS Lat: -10.59 Lon: 142.22 Height: 3.0 m
Data from the previous 72 hours. | See also: Recent months for locations in Queensland
Date/Time
EST
Temp
°C
App
Temp
°C
Dew
Point
°C
Rel
Hum
%
Delta-T
°C
Wind Press
QNH
hPa
Press
MSL
hPa
Rain since
9am
mm
Dir  Spd
km/h
Gust
km/h
Spd
kts
Gust
kts
26/08:00pm 28.7 - - - - W 9 11 5 6 1009.3 1009.3 -
26/07:30pm 28.6 - - - - W 7 11 4 6 1008.8 1008.8 -
26/07:00pm 28.7 - - - - WNW 7 11 4 6 1008.5 1008.5 -
26/06:30pm 28.8 - - - - W 11 15 6 8 1008.2 1008.2 -
26/06:00pm 29.0 - - - - WNW 11 17 6 9 1008.2 1008.2 -
26/05:30pm 29.1 - - - - WNW 11 17 6 9 1008.0 1008.0 -
26/05:00pm 29.2 - - - - WNW 11 17 6 9 1007.7 1007.7 -
26/04:30pm 29.2 - - - - WNW 11 19 6 10 1007.7 1007.7 -
26/04:00pm 29.4 - - - - WNW 13 19 7 10 1007.9 1007.9 -
26/03:30pm 29.4 - - - - WNW 15 22 8 12 1008.1 1008.1 -
26/03:00pm 29.5 - - - - NW 13 20 7 11 1008.5 1008.5 -
26/02:30pm 30.0 - - - - NW 11 17 6 9 1008.8 1008.8 -
26/02:00pm 29.5 - - - - NNW 9 19 5 10 1009.3 1009.3 -
26/01:30pm 29.8 - - - - NNW 13 20 7 11 1009.8 1009.8 -
26/01:00pm 29.2 - - - - NNW 11 22 6 12 1010.3 1010.3 -
26/12:30pm 29.5 - - - - NW 13 20 7 11 1010.9 1010.9 -
26/12:00pm 29.2 - - - - NW 13 17 7 9 1011.2 1011.2 -
26/11:30am 29.1 - - - - NNW 11 17 6 9 1011.8 1011.8 -
26/11:00am 28.8 - - - - NNW 9 17 5 9 1012.1 1012.1 -
26/10:30am 28.4 - - - - NW 7 11 4 6 1012.1 1012.1 -
26/10:00am 28.3 - - - - NNW 7 13 4 7 1012.0 1012.0 -
26/09:30am 27.0 - - - - NNW 9 13 5 7 1012.2 1012.2 -
26/09:00am 26.2 - - - - NNW 13 22 7 12 1012.4 1012.4 -
26/08:30am 28.6 - - - - E 2 7 1 4 1012.0 1012.0 -
26/08:00am 28.2 - - - - SSW 2 2 1 1 1011.9 1011.9 -
26/07:30am 27.6 - - - - CALM 0 2 0 1 1011.7 1011.7 -
26/07:00am 27.0 - - - - N 4 6 2 3 1011.5 1011.5 -
26/06:30am 27.3 - - - - WNW 6 7 3 4 1011.0 1011.0 -
26/06:00am 27.4 - - - - WNW 6 7 3 4 1010.7 1010.7 -
26/05:30am 27.5 - - - - NW 2 4 1 2 1010.6 1010.6 -
26/05:00am 27.3 - - - - ENE 4 6 2 3 1010.6 1010.6 -
26/04:30am 27.5 - - - - CALM 0 2 0 1 1010.5 1010.5 -
26/04:00am 27.6 - - - - ESE 2 4 1 2 1010.2 1010.2 -
26/03:30am 27.6 - - - - ENE 2 4 1 2 1010.2 1010.2 -
26/03:00am 27.2 - - - - NNE 4 6 2 3 1010.1 1010.1 -
26/02:30am 27.5 - - - - CALM 0 2 0 1 1010.1 1010.1 -
26/02:00am 27.3 - - - - NE 2 4 1 2 1010.3 1010.3 -
26/01:30am 27.6 - - - - ENE 2 4 1 2 1010.3 1010.3 -
26/01:00am 27.5 - - - - ENE 4 6 2 3 1010.5 1010.5 -
26/12:30am 27.4 - - - - ENE 7 9 4 5 1010.6 1010.6 -
26/12:00am 27.5 - - - - E 6 7 3 4 1010.8 1010.8 -
 
Date/Time
EST
Temp
°C
App
Temp
°C
Dew
Point
°C
Rel
Hum
%
Delta-T
°C
Wind Press
QNH
hPa
Press
MSL
hPa
Rain since
9am
mm
Dir  Spd
km/h
Gust
km/h
Spd
kts
Gust
kts
25/11:30pm 27.1 - - - - E 11 15 6 8 1011.1 1011.1 -
25/11:00pm 28.2 - - - - NE 4 9 2 5 1011.4 1011.4 -
25/10:30pm 28.4 - - - - NE 4 6 2 3 1011.3 1011.3 -
25/10:00pm 28.3 - - - - N 2 6 1 3 1011.3 1011.3 -
25/09:30pm 28.6 - - - - NW 4 7 2 4 1011.3 1011.3 -
25/09:00pm 28.7 - - - - NW 6 9 3 5 1011.2 1011.2 -
25/08:30pm 28.9 - - - - WNW 7 9 4 5 1010.9 1010.9 -
25/08:00pm 28.9 - - - - W 6 7 3 4 1010.5 1010.5 -
25/07:30pm 29.0 - - - - W 7 9 4 5 1010.0 1010.0 -
25/07:00pm 28.9 - - - - WNW 6 7 3 4 1009.8 1009.8 -
25/06:30pm 29.0 - - - - WNW 7 11 4 6 1009.3 1009.3 -
25/06:00pm 29.4 - - - - WNW 9 13 5 7 1008.8 1008.8 -
25/05:30pm 29.2 - - - - WNW 9 13 5 7 1008.6 1008.6 -
25/05:00pm 29.6 - - - - W 11 15 6 8 1008.4 1008.4 -
25/04:30pm 29.6 - - - - W 13 17 7 9 1008.1 1008.1 -
25/04:00pm 29.5 - - - - W 13 17 7 9 1008.3 1008.3 -
25/03:30pm 29.8 - - - - W 11 17 6 9 1008.4 1008.4 -
25/03:00pm 29.1 - - - - W 15 19 8 10 1008.7 1008.7 -
25/02:30pm 29.5 - - - - W 11 17 6 9 1008.9 1008.9 -
25/02:00pm 29.2 - - - - W 13 22 7 12 1009.3 1009.3 -
25/01:30pm 29.5 - - - - W 15 19 8 10 1009.6 1009.6 -
25/01:00pm 29.0 - - - - W 15 17 8 9 1010.1 1010.1 -
25/12:30pm 29.8 - - - - NW 9 19 5 10 1010.3 1010.3 -
25/12:00pm 29.6 - - - - NW 9 15 5 8 1010.5 1010.5 -
25/11:30am 29.5 - - - - NNW 9 17 5 9 1010.8 1010.8 -
25/11:00am 29.0 - - - - NNE 11 17 6 9 1011.0 1011.0 -
25/10:30am 28.7 - - - - NNE 9 17 5 9 1011.2 1011.2 -
25/10:00am 28.7 - - - - NE 9 15 5 8 1011.3 1011.3 -
25/09:30am 28.4 - - - - NE 9 15 5 8 1011.3 1011.3 -
25/09:00am 28.3 - - - - NNE 9 13 5 7 1011.1 1011.1 -
25/08:30am 28.3 - - - - NNE 7 13 4 7 1010.9 1010.9 -
25/08:00am 28.3 - - - - NW 4 6 2 3 1011.0 1011.0 -
25/07:30am 27.5 - - - - NNE 4 6 2 3 1010.9 1010.9 -
25/07:00am 27.0 - - - - NNE 2 4 1 2 1010.5 1010.5 -
25/06:30am 27.1 - - - - NNW 2 4 1 2 1010.2 1010.2 -
25/06:00am 27.0 - - - - NNW 4 6 2 3 1010.1 1010.1 -
25/05:30am 27.0 - - - - N 4 6 2 3 1009.8 1009.8 -
25/05:00am 27.1 - - - - NNW 4 6 2 3 1009.5 1009.5 -
25/04:30am 27.1 - - - - N 6 7 3 4 1009.5 1009.5 -
25/04:00am 27.4 - - - - NE 6 6 3 3 1009.5 1009.5 -
25/03:30am 27.7 - - - - NE 6 7 3 4 1009.6 1009.6 -
25/03:00am 27.3 - - - - NE 4 6 2 3 1009.7 1009.7 -
25/02:30am 27.4 - - - - NNE 4 6 2 3 1009.6 1009.6 -
25/02:00am 27.7 - - - - NE 7 11 4 6 1009.6 1009.6 -
25/01:30am 27.6 - - - - NNE 6 6 3 3 1009.9 1009.9 -
25/01:00am 27.2 - - - - NE 2 4 1 2 1010.1 1010.1 -
25/12:30am 27.2 - - - - ENE 2 4 1 2 1010.4 1010.4 -
25/12:00am 27.2 - - - - N 2 2 1 1 1011.0 1011.0 -
 
Date/Time
EST
Temp
°C
App
Temp
°C
Dew
Point
°C
Rel
Hum
%
Delta-T
°C
Wind Press
QNH
hPa
Press
MSL
hPa
Rain since
9am
mm
Dir  Spd
km/h
Gust
km/h
Spd
kts
Gust
kts
24/11:30pm 27.3 - - - - ESE 6 9 3 5 1011.2 1011.2 -
24/11:00pm 27.2 - - - - E 6 9 3 5 1011.4 1011.4 -
24/10:30pm 27.1 - - - - SE 9 11 5 6 1011.3 1011.3 -
24/10:00pm 27.2 - - - - SE 11 13 6 7 1011.3 1011.3 -
24/09:30pm 27.7 - - - - SE 9 9 5 5 1011.4 1011.4 -
24/09:00pm 27.9 - - - - SE 9 11 5 6 1011.2 1011.2 -
24/08:30pm 27.8 - - - - SE 7 11 4 6 1011.0 1011.0 -
24/08:00pm 27.9 - - - - N 4 6 2 3 1010.9 1010.9 -
24/07:30pm 28.0 - - - - NE 2 4 1 2 1010.4 1010.4 -
24/07:00pm 28.1 - - - - NE 4 6 2 3 1009.8 1009.8 -
24/06:30pm 28.2 - - - - N 4 6 2 3 1009.4 1009.4 -
24/06:00pm 28.4 - - - - NW 7 11 4 6 1009.1 1009.1 -
24/05:30pm 28.8 - - - - WNW 9 13 5 7 1008.9 1008.9 -
24/05:00pm 28.7 - - - - NNE 7 11 4 6 1008.6 1008.6 -
24/04:30pm 28.9 - - - - NE 7 13 4 7 1008.4 1008.4 -
24/04:00pm 28.0 - - - - ENE 15 19 8 10 1008.3 1008.3 -
24/03:30pm 29.0 - - - - NE 7 13 4 7 1008.3 1008.3 -
24/03:00pm 28.7 - - - - NE 13 19 7 10 1008.5 1008.5 -
24/02:30pm 29.0 - - - - NNE 17 24 9 13 1008.9 1008.9 -
24/02:00pm 29.1 - - - - NNE 13 20 7 11 1008.9 1008.9 -
24/01:30pm 29.4 - - - - NNE 11 20 6 11 1009.4 1009.4 -
24/01:00pm 29.3 - - - - NW 11 17 6 9 1009.7 1009.7 -
24/12:30pm 29.6 - - - - NNW 11 17 6 9 1010.4 1010.4 -
24/12:00pm 29.1 - - - - NNW 6 9 3 5 1010.7 1010.7 -
24/11:30am 28.5 - - - - NNE 7 13 4 7 1010.8 1010.8 -
24/11:00am 28.9 - - - - NW 7 13 4 7 1011.1 1011.1 -
24/10:30am 28.6 - - - - N 7 13 4 7 1011.2 1011.2 -
24/10:00am 28.8 - - - - NNW 6 11 3 6 1011.4 1011.4 -
24/09:30am 28.6 - - - - N 9 17 5 9 1011.3 1011.3 -
24/09:00am 27.9 - - - - N 11 17 6 9 1011.1 1011.1 -
24/08:30am 27.9 - - - - N 7 15 4 8 1010.8 1010.8 -
24/08:00am 27.4 - - - - N 4 9 2 5 1010.5 1010.5 -
24/07:30am 27.6 - - - - NNW 4 7 2 4 1010.0 1010.0 -
24/07:00am 27.0 - - - - NW 6 7 3 4 1009.6 1009.6 -
24/06:30am 27.1 - - - - NNE 6 11 3 6 1009.3 1009.3 -
24/06:00am 27.2 - - - - NE 9 17 5 9 1008.9 1008.9 -
24/05:30am 27.1 - - - - NE 13 17 7 9 1008.6 1008.6 -
24/05:00am 27.2 - - - - NNE 11 17 6 9 1008.7 1008.7 -
24/04:30am 27.2 - - - - NE 11 17 6 9 1008.4 1008.4 -
24/04:00am 27.3 - - - - NE 17 24 9 13 1008.2 1008.2 -
24/03:30am 27.4 - - - - NE 15 26 8 14 1008.1 1008.1 -
24/03:00am 27.5 - - - - NNE 17 28 9 15 1007.9 1007.9 -
24/02:30am 27.6 - - - - NE 15 20 8 11 1008.3 1008.3 -
24/02:00am 27.6 - - - - NE 17 26 9 14 1008.3 1008.3 -
24/01:30am 27.7 - - - - NE 17 26 9 14 1008.5 1008.5 -
24/01:00am 27.9 - - - - NE 15 22 8 12 1008.6 1008.6 -
24/12:30am 27.9 - - - - NE 15 22 8 12 1008.8 1008.8 -
24/12:00am 27.9 - - - - NE 15 22 8 12 1009.2 1009.2 -
 
Date/Time
EST
Temp
°C
App
Temp
°C
Dew
Point
°C
Rel
Hum
%
Delta-T
°C
Wind Press
QNH
hPa
Press
MSL
hPa
Rain since
9am
mm
Dir  Spd
km/h
Gust
km/h
Spd
kts
Gust
kts
23/11:30pm 27.8 - - - - NE 15 24 8 13 1009.2 1009.2 -
23/11:00pm 27.9 - - - - NE 9 13 5 7 1009.7 1009.7 -
23/10:30pm 27.9 - - - - NNE 11 17 6 9 1010.0 1010.0 -
23/10:00pm 27.9 - - - - N 7 13 4 7 1009.9 1009.9 -
23/09:30pm 28.0 - - - - NE 9 17 5 9 1009.8 1009.8 -
23/09:00pm 28.0 - - - - NE 11 15 6 8 1009.8 1009.8 -
23/08:30pm 28.1 - - - - NE 6 7 3 4 1009.5 1009.5 -

Other formats

Comma delimited format used in spreadsheet applications
http://www.bom.gov.au/fwo/IDQ60801/IDQ60801.94181.axf

JavaScript Object Notation format (JSON) in row-major order
http://www.bom.gov.au/fwo/IDQ60801/IDQ60801.94181.json

Data quality

Most of these data are generated automatically and are frequently updated. Quality checks on data are not normally performed. It is possible for incorrect values to appear. Refer to information at About Latest Weather Observations and please check the disclaimer before using these data.